Time;durP1;ratioP1;P1;durP2;ratioP2;P2;SDS_P1;SDS_P2;PMS_P1;PMS_P2;Temp;Humidity;BMP_temperature;BMP_pressure;BME280_temperature;BME280_humidity;BME280_pressure;Samples;Min_cycle;Max_cycle;Signal;HPM_P1;HPM_P2
2021/12/18 00:00:14;;;;;;;18.98;13.82;;;;;;;7.86;90.21;103930.19;5096313;28;20062;-77
2021/12/18 00:02:40;;;;;;;18.60;13.70;;;;;;;7.87;90.21;103939.00;5101478;28;20072;-77
2021/12/18 00:05:05;;;;;;;18.25;14.15;;;;;;;7.78;90.03;103918.72;5089594;28;20102;-77
2021/12/18 00:07:31;;;;;;;21.13;13.90;;;;;;;7.87;90.15;103925.75;5088198;28;20485;-79
2021/12/18 00:09:57;;;;;;;22.05;15.48;;;;;;;7.89;90.16;103927.53;5090751;28;20471;-78
2021/12/18 00:12:23;;;;;;;18.75;14.43;;;;;;;7.70;90.03;103899.28;5092862;28;20031;-77
2021/12/18 00:14:50;;;;;;;17.63;13.82;;;;;;;7.85;90.68;103932.81;5092609;28;20044;-78
2021/12/18 00:17:15;;;;;;;21.45;14.85;;;;;;;7.70;90.54;103902.81;5092953;28;20028;-76
2021/12/18 00:19:41;;;;;;;21.05;15.18;;;;;;;7.62;90.50;103894.03;5092629;28;20034;-77
2021/12/18 00:22:06;;;;;;;23.73;16.45;;;;;;;7.85;91.09;103924.88;5092816;28;20534;-78
2021/12/18 00:24:32;;;;;;;20.77;15.60;;;;;;;7.83;91.18;103924.91;5090955;28;20515;-76
2021/12/18 00:26:57;;;;;;;22.05;15.55;;;;;;;7.75;90.88;103908.13;5092552;28;20028;-77
2021/12/18 00:29:23;;;;;;;19.92;15.80;;;;;;;7.74;91.05;103903.72;5092457;28;20118;-78
2021/12/18 00:31:48;;;;;;;22.50;15.52;;;;;;;7.78;91.22;103907.22;5092493;28;20035;-78
2021/12/18 00:34:13;;;;;;;21.08;15.40;;;;;;;7.85;91.39;103907.22;5092680;28;20098;-78
2021/12/18 00:36:39;;;;;;;22.00;15.30;;;;;;;7.83;91.80;103909.00;5092086;28;20040;-78
2021/12/18 00:39:04;;;;;;;21.90;15.80;;;;;;;7.70;92.04;103894.88;5090631;28;20076;-77
2021/12/18 00:44:02;;;;;;;20.55;13.52;;;;;;;7.84;91.92;103910.75;5092532;28;20028;-78
2021/12/18 00:46:29;;;;;;;21.67;14.40;;;;;;;7.71;91.87;103890.47;5092200;28;20039;-77
2021/12/18 00:48:55;;;;;;;18.77;13.60;;;;;;;7.73;91.76;103888.69;5072384;28;20028;-77
2021/12/18 00:51:20;;;;;;;16.98;12.80;;;;;;;7.77;91.89;103901.06;5091656;28;20359;-77
2021/12/18 00:53:46;;;;;;;16.98;12.90;;;;;;;7.79;91.83;103901.03;5092366;28;20043;-76
2021/12/18 00:56:12;;;;;;;18.35;13.30;;;;;;;7.75;91.83;103900.16;5092221;28;20035;-77
2021/12/18 00:58:37;;;;;;;19.70;14.02;;;;;;;7.74;91.76;103898.41;5091604;28;20034;-78
2021/12/18 01:01:08;;;;;;;19.58;12.90;;;;;;;7.55;91.76;103859.59;5090505;28;20127;-77
2021/12/18 01:03:35;;;;;;;15.90;11.75;;;;;;;7.59;91.84;103867.53;5091959;28;20378;-77
2021/12/18 01:06:01;;;;;;;17.75;13.18;;;;;;;7.74;91.37;103898.41;5092266;28;20024;-76
2021/12/18 01:08:26;;;;;;;18.13;12.38;;;;;;;7.75;91.49;103892.22;5091978;28;20042;-76
2021/12/18 01:13:47;;;;;;;15.02;11.40;;;;;;;7.70;91.65;103886.03;5095272;28;20101;-78
2021/12/18 01:16:19;;;;;;;15.68;11.10;;;;;;;7.64;91.42;103871.03;5095582;28;20047;-76
2021/12/18 01:24:12;;;;;;;15.00;10.73;;;;;;;7.59;91.34;103864.91;5095828;28;20459;-77
2021/12/18 01:26:37;;;;;;;16.40;10.90;;;;;;;7.62;90.97;103859.59;5095432;28;20122;-77
2021/12/18 01:29:03;;;;;;;15.25;11.48;;;;;;;7.73;90.80;103878.09;5094035;28;20039;-77
2021/12/18 01:31:28;;;;;;;16.95;10.73;;;;;;;7.75;91.30;103886.94;5095450;28;20032;-78
2021/12/18 01:33:53;;;;;;;15.77;10.82;;;;;;;7.80;90.80;103893.09;5094277;28;20024;-78
2021/12/18 01:36:20;;;;;;;13.50;9.70;;;;;;;7.82;90.78;103890.44;5095299;28;20024;-79
2021/12/18 01:38:46;;;;;;;15.43;10.98;;;;;;;7.79;90.59;103891.31;5095831;28;20463;-76
2021/12/18 01:41:13;;;;;;;14.32;10.27;;;;;;;7.79;90.60;103896.63;5095349;28;20031;-77
2021/12/18 01:52:16;;;;;;;16.40;10.55;;;;;;;7.80;90.54;103901.06;5052275;28;20040;-78
2021/12/18 01:54:43;;;;;;;15.18;10.27;;;;;;;7.82;90.54;103901.91;5052746;28;20381;-76
2021/12/18 01:57:09;;;;;;;14.10;9.95;;;;;;;7.78;90.51;103899.28;5052706;28;20060;-77
2021/12/18 01:59:42;;;;;;;16.30;10.55;;;;;;;7.72;90.32;103898.41;5051507;28;20045;-76
2021/12/18 02:02:07;;;;;;;15.27;11.18;;;;;;;7.60;90.59;103879.00;5052704;28;20033;-78
2021/12/18 02:04:33;;;;;;;16.70;10.45;;;;;;;7.58;90.22;103886.06;5052448;28;20040;-77
2021/12/18 02:06:59;;;;;;;15.10;10.00;;;;;;;7.66;90.36;103898.41;5052768;28;20040;-75
2021/12/18 02:09:32;;;;;;;15.70;11.15;;;;;;;7.67;91.05;103902.81;5051316;28;20155;-78
2021/12/18 02:11:59;;;;;;;13.40;9.73;;;;;;;7.73;90.89;103912.53;5039281;28;20456;-77
2021/12/18 02:19:33;;;;;;;14.88;10.68;;;;;;;7.71;90.87;103906.38;5052354;28;20980;-78
2021/12/18 02:20:24;;;;;;;16.30;10.50;;;;;;;7.74;90.92;103906.38;5052260;28;20043;-79
2021/12/18 02:22:51;;;;;;;13.57;9.68;;;;;;;7.71;90.90;103894.00;5070898;28;20024;-78
2021/12/18 02:25:17;;;;;;;16.80;11.43;;;;;;;7.57;90.83;103871.06;5093438;28;20490;-76
2021/12/18 02:27:43;;;;;;;17.92;11.63;;;;;;;7.64;90.95;103880.75;5094322;28;20023;-78
2021/12/18 02:30:10;;;;;;;16.15;11.55;;;;;;;7.71;91.01;103895.78;5094391;28;20031;-76
2021/12/18 02:32:36;;;;;;;17.15;12.43;;;;;;;7.57;91.09;103871.06;5093027;28;20119;-77
2021/12/18 02:35:05;;;;;;;17.63;12.20;;;;;;;7.67;91.09;103889.56;5092999;28;20403;-77
2021/12/18 02:37:35;;;;;;;18.02;12.00;;;;;;;7.71;91.22;103886.06;5094463;28;20024;-77
2021/12/18 02:42:35;;;;;;;17.65;11.68;;;;;;;7.71;91.36;103893.13;5094654;28;20024;-77
2021/12/18 02:45:02;;;;;;;20.05;12.80;;;;;;;7.66;91.16;103886.94;5094156;28;20394;-76
2021/12/18 02:47:27;;;;;;;16.40;11.95;;;;;;;7.66;91.60;103879.88;5092718;28;20016;-77
2021/12/18 02:49:53;;;;;;;17.30;12.40;;;;;;;7.65;91.54;103883.41;5092887;28;20020;-77
2021/12/18 02:52:25;;;;;;;17.58;12.80;;;;;;;7.49;91.48;103864.00;5093914;28;20028;-77
2021/12/18 02:54:51;;;;;;;18.38;12.48;;;;;;;7.59;91.66;103880.78;5092204;28;20529;-77
2021/12/18 02:57:18;;;;;;;20.05;12.90;;;;;;;7.63;91.96;103884.31;5093817;28;20024;-77
2021/12/18 02:59:53;;;;;;;18.02;13.25;;;;;;;7.57;91.77;103860.47;5091895;28;20043;-77
2021/12/18 03:02:20;;;;;;;18.65;12.23;;;;;;;7.63;91.69;103869.28;5069872;28;20034;-79
2021/12/18 03:04:50;;;;;;;18.77;13.20;;;;;;;7.68;91.56;103872.81;5085647;28;20099;-78
2021/12/18 03:07:18;;;;;;;19.55;12.00;;;;;;;7.72;91.49;103871.03;5093401;28;21225;-76
2021/12/18 03:19:00;;;;;;;18.38;12.57;;;;;;;7.70;91.10;103872.81;5088617;28;20130;-77
2021/12/18 03:26:00;;;;;;;16.38;11.95;;;;;;;7.66;91.32;103853.38;5093600;28;20538;-76
2021/12/18 03:28:26;;;;;;;22.60;13.18;;;;;;;7.64;91.46;103855.16;5093297;28;20028;-76
2021/12/18 03:30:52;;;;;;;18.35;12.63;;;;;;;7.57;91.85;103850.75;5093598;28;20028;-76
2021/12/18 03:33:17;;;;;;;16.85;12.77;;;;;;;7.60;91.83;103863.13;5091768;28;20027;-76
2021/12/18 03:35:43;;;;;;;19.20;13.27;;;;;;;7.59;91.89;103856.94;5092275;28;20437;-77
2021/12/18 03:38:12;;;;;;;18.58;12.93;;;;;;;7.50;91.78;103847.25;5091732;28;20064;-76
2021/12/18 03:40:38;;;;;;;18.42;13.27;;;;;;;7.57;92.20;103865.78;5093308;28;20024;-78
2021/12/18 03:43:03;;;;;;;17.98;12.43;;;;;;;7.58;92.04;103851.63;5092998;28;20076;-77
2021/12/18 03:45:29;;;;;;;19.45;11.88;;;;;;;7.56;92.05;103851.66;5092940;28;20111;-76
2021/12/18 03:47:55;;;;;;;17.45;12.75;;;;;;;7.56;92.25;103856.97;5093144;28;20036;-76
2021/12/18 03:50:21;;;;;;;18.55;12.60;;;;;;;7.61;92.26;103865.75;5093231;28;20039;-76
2021/12/18 03:52:47;;;;;;;17.60;12.40;;;;;;;7.46;91.87;103855.19;5092673;28;20035;-77
2021/12/18 03:55:14;;;;;;;17.17;11.93;;;;;;;7.39;91.93;103833.16;5074877;28;20020;-77
2021/12/18 03:57:40;;;;;;;18.10;12.95;;;;;;;7.48;92.10;103858.72;5093027;28;20055;-76
2021/12/18 04:00:09;;;;;;;17.25;12.32;;;;;;;7.60;92.07;103871.06;5074875;28;20070;-78
2021/12/18 04:02:34;;;;;;;18.40;12.57;;;;;;;7.49;91.85;103857.84;5093117;28;20107;-78
2021/12/18 04:04:59;;;;;;;16.45;11.80;;;;;;;7.54;92.12;103866.66;5092962;28;20032;-78
2021/12/18 04:07:25;;;;;;;17.65;12.50;;;;;;;7.46;91.92;103850.78;5092898;28;20028;-77
2021/12/18 04:09:50;;;;;;;16.05;11.80;;;;;;;7.58;92.43;103872.81;5091710;28;20374;-78
2021/12/18 04:12:16;;;;;;;16.92;12.55;;;;;;;7.59;92.20;103878.13;5091269;28;20043;-77
2021/12/18 04:14:42;;;;;;;18.20;12.55;;;;;;;7.57;92.25;103874.59;5092300;28;20060;-76
2021/12/18 04:17:07;;;;;;;19.83;12.27;;;;;;;7.58;92.27;103871.06;5092920;28;20035;-77
2021/12/18 04:19:33;;;;;;;17.13;12.25;;;;;;;7.57;92.56;103873.72;5092674;28;20153;-78
2021/12/18 04:21:59;;;;;;;18.08;12.45;;;;;;;7.51;92.45;103866.66;5092736;28;20073;-77
2021/12/18 04:24:24;;;;;;;18.30;13.05;;;;;;;7.54;92.37;103873.72;5092299;28;20441;-77
2021/12/18 04:26:49;;;;;;;18.20;12.38;;;;;;;7.51;92.44;103869.31;5092491;28;20479;-78
2021/12/18 04:29:15;;;;;;;17.48;12.60;;;;;;;7.45;92.90;103859.63;5092288;28;20463;-78
2021/12/18 04:31:40;;;;;;;16.55;11.18;;;;;;;7.54;92.72;103866.66;5092602;28;20137;-75
2021/12/18 04:34:07;;;;;;;17.80;11.80;;;;;;;7.56;92.46;103866.66;5091845;28;20097;-76
2021/12/18 04:36:33;;;;;;;17.23;12.43;;;;;;;7.57;92.76;103861.34;5097808;28;20084;-77
2021/12/18 04:38:59;;;;;;;17.80;12.02;;;;;;;7.46;92.60;103852.53;5111908;28;20028;-77
2021/12/18 04:41:37;;;;;;;18.50;12.48;;;;;;;7.43;92.71;103855.19;5094993;28;20082;-78
2021/12/18 04:44:03;;;;;;;16.17;11.70;;;;;;;7.42;92.69;103856.97;5060821;28;20056;-78
2021/12/18 04:46:28;;;;;;;17.05;11.48;;;;;;;7.34;92.76;103829.63;5080673;28;20024;-77
2021/12/18 04:48:53;;;;;;;17.95;12.80;;;;;;;7.49;92.85;103865.78;5096900;28;20034;-77
2021/12/18 04:51:19;;;;;;;17.45;11.63;;;;;;;7.41;93.05;103862.25;5080220;28;20029;-77
2021/12/18 04:53:44;;;;;;;18.27;12.25;;;;;;;7.50;93.00;103871.09;5084017;28;20032;-78
2021/12/18 04:56:09;;;;;;;15.75;11.45;;;;;;;7.54;93.06;103874.59;5080547;28;20024;-78
2021/12/18 04:58:35;;;;;;;18.15;12.27;;;;;;;7.50;93.07;103886.09;5096344;28;20024;-77
2021/12/18 05:01:00;;;;;;;18.63;11.93;;;;;;;7.54;92.99;103877.25;5090919;28;20036;-78
2021/12/18 05:03:26;;;;;;;18.98;12.15;;;;;;;7.47;92.88;103863.16;5085152;28;20077;-77
2021/12/18 05:05:51;;;;;;;18.52;12.52;;;;;;;7.46;93.60;103879.91;5096231;28;20036;-77
2021/12/18 05:08:16;;;;;;;16.83;12.05;;;;;;;7.35;93.09;103868.44;5095849;28;20027;-77
2021/12/18 05:10:42;;;;;;;18.25;12.02;;;;;;;7.26;93.13;103857.84;5096296;28;20024;-77
2021/12/18 05:13:07;;;;;;;18.05;11.98;;;;;;;7.27;93.45;103864.94;5094700;28;20402;-77
2021/12/18 05:15:32;;;;;;;15.57;11.80;;;;;;;7.24;93.78;103864.94;5095999;28;20118;-78
2021/12/18 05:17:58;;;;;;;18.80;12.35;;;;;;;7.26;93.79;103876.38;5095715;28;20024;-77
2021/12/18 05:20:23;;;;;;;18.35;12.57;;;;;;;7.21;94.02;103868.47;5096126;28;20024;-77
2021/12/18 05:22:49;;;;;;;17.02;11.30;;;;;;;7.29;94.12;103868.44;5095470;28;20056;-77
2021/12/18 05:25:14;;;;;;;15.23;10.98;;;;;;;7.32;93.94;103878.16;5096192;28;20039;-77
2021/12/18 05:27:40;;;;;;;17.45;11.32;;;;;;;7.38;93.98;103891.38;5095652;28;20031;-78
2021/12/18 05:30:08;;;;;;;18.40;11.57;;;;;;;7.36;94.06;103894.03;5095588;28;20489;-77
2021/12/18 05:32:34;;;;;;;15.45;11.95;;;;;;;7.35;93.78;103891.38;5095621;28;20368;-77
2021/12/18 05:34:59;;;;;;;16.38;10.95;;;;;;;7.22;93.81;103882.56;5094970;28;20072;-77
2021/12/18 05:39:50;;;;;;;15.10;10.15;;;;;;;7.33;94.21;103890.53;5095402;28;20040;-76
2021/12/18 05:42:15;;;;;;;16.45;10.57;;;;;;;7.32;93.91;103886.97;5075666;28;20028;-78
2021/12/18 05:44:41;;;;;;;16.05;10.70;;;;;;;7.17;93.70;103863.16;5093807;28;20034;-76
2021/12/18 05:47:07;;;;;;;19.05;12.30;;;;;;;7.22;94.05;103878.16;5095666;28;20063;-76
2021/12/18 05:49:33;;;;;;;18.13;11.88;;;;;;;7.18;94.23;103865.81;5095300;28;20062;-77
2021/12/18 05:51:58;;;;;;;22.05;13.20;;;;;;;7.24;94.17;103872.88;5092434;28;20036;-76
2021/12/18 05:54:24;;;;;;;20.13;12.95;;;;;;;7.28;94.12;103888.75;5095123;28;20600;-77
2021/12/18 05:56:49;;;;;;;19.33;13.05;;;;;;;7.26;94.03;103882.59;5095222;28;20028;-76
2021/12/18 05:59:15;;;;;;;21.40;14.18;;;;;;;7.16;93.94;103867.56;5094065;28;20027;-78
2021/12/18 06:01:41;;;;;;;21.95;14.30;;;;;;;7.20;94.39;103877.25;5095061;28;20081;-77
2021/12/18 06:04:07;;;;;;;22.83;14.35;;;;;;;7.34;94.42;103895.81;5095364;28;20776;-76
2021/12/18 06:06:32;;;;;;;23.95;13.68;;;;;;;7.23;94.34;103876.38;5093665;28;20027;-77
2021/12/18 06:08:58;;;;;;;22.02;14.35;;;;;;;7.26;94.38;103879.03;5095449;28;20459;-76
2021/12/18 06:11:27;;;;;;;21.48;14.10;;;;;;;7.33;94.53;103893.19;5092744;28;20036;-78
2021/12/18 06:13:52;;;;;;;22.48;14.68;;;;;;;7.32;94.62;103891.38;5094888;28;20475;-78
2021/12/18 06:16:19;;;;;;;25.50;14.95;;;;;;;7.31;94.81;103886.97;5095062;28;20028;-77
2021/12/18 06:18:49;;;;;;;25.55;14.35;;;;;;;7.33;94.61;103890.53;5094927;28;20113;-77
2021/12/18 06:21:16;;;;;;;24.58;13.82;;;;;;;6.99;94.61;103829.63;5094625;28;20028;-77
2021/12/18 06:23:42;;;;;;;22.63;14.27;;;;;;;7.26;94.43;103887.88;5094690;28;20046;-77
2021/12/18 06:26:08;;;;;;;21.85;14.02;;;;;;;7.13;94.66;103864.94;5094600;28;20059;-79
2021/12/18 06:28:34;;;;;;;25.27;14.80;;;;;;;7.19;94.47;103875.50;5094819;28;20059;-77
2021/12/18 06:31:01;;;;;;;23.02;14.63;;;;;;;7.21;94.51;103884.34;5093392;28;20107;-78
2021/12/18 06:33:27;;;;;;;20.27;13.05;;;;;;;7.27;94.97;103888.75;5093239;28;20036;-77
2021/12/18 06:35:52;;;;;;;22.55;13.57;;;;;;;7.24;94.85;103889.63;5094883;28;20042;-77
2021/12/18 06:38:17;;;;;;;22.90;13.65;;;;;;;7.02;94.66;103850.81;5093986;28;20036;-78
2021/12/18 06:40:43;;;;;;;18.10;12.02;;;;;;;7.14;94.82;103871.97;5093270;28;20036;-78
2021/12/18 06:43:08;;;;;;;18.13;11.55;;;;;;;7.21;94.48;103888.75;5094521;28;20034;-77
2021/12/18 06:45:34;;;;;;;20.80;12.90;;;;;;;7.22;94.63;103886.09;5094490;28;20111;-77
2021/12/18 06:47:59;;;;;;;20.92;12.18;;;;;;;6.99;94.58;103842.88;5093038;28;20043;-78
2021/12/18 06:50:25;;;;;;;17.38;11.52;;;;;;;7.23;94.51;103889.63;5093556;28;20031;-77
2021/12/18 06:52:51;;;;;;;17.67;11.38;;;;;;;7.20;94.45;103887.84;5093957;28;20509;-76
2021/12/18 06:55:17;;;;;;;17.80;11.43;;;;;;;7.09;94.56;103851.69;5094197;28;20036;-77
2021/12/18 06:57:42;;;;;;;17.65;11.65;;;;;;;7.23;94.74;103879.03;5094426;28;20107;-78
2021/12/18 07:00:11;;;;;;;16.42;10.48;;;;;;;7.31;94.35;103886.97;5093695;28;20032;-76
2021/12/18 07:02:37;;;;;;;16.30;10.00;;;;;;;7.27;94.31;103883.47;5094311;28;20031;-76
2021/12/18 07:05:03;;;;;;;17.63;11.05;;;;;;;7.09;94.53;103843.75;5093957;28;20032;-78
2021/12/18 07:07:28;;;;;;;17.73;10.68;;;;;;;7.10;94.27;103848.16;5094070;28;20059;-76
2021/12/18 07:09:54;;;;;;;18.38;11.13;;;;;;;7.31;94.12;103881.69;5093055;28;20124;-78
2021/12/18 07:12:19;;;;;;;18.95;11.45;;;;;;;7.19;94.21;103869.34;5093206;28;20028;-77
2021/12/18 07:14:46;;;;;;;19.38;10.48;;;;;;;7.14;94.26;103845.50;5093311;28;20140;-76
2021/12/18 07:17:11;;;;;;;20.95;11.52;;;;;;;7.20;94.27;103855.22;5092570;28;20083;-78
2021/12/18 07:19:38;;;;;;;18.10;11.40;;;;;;;7.26;94.17;103857.84;5093346;28;20019;-78
2021/12/18 07:22:03;;;;;;;21.35;11.35;;;;;;;7.33;94.14;103877.28;5093402;28;20020;-77
2021/12/18 07:24:29;;;;;;;17.75;11.45;;;;;;;7.18;94.26;103859.66;5093679;28;20473;-77
2021/12/18 07:26:55;;;;;;;18.60;11.07;;;;;;;7.37;94.29;103879.91;5093732;28;20024;-77
2021/12/18 07:29:21;;;;;;;20.90;12.27;;;;;;;7.21;94.13;103857.88;5075347;28;20032;-78
2021/12/18 07:31:46;;;;;;;19.27;11.82;;;;;;;7.36;94.47;103882.56;5093352;28;20024;-78
2021/12/18 07:34:12;;;;;;;19.75;11.52;;;;;;;7.21;94.23;103865.81;5093394;28;20024;-77
2021/12/18 07:36:37;;;;;;;20.60;12.75;;;;;;;6.99;94.49;103824.34;5093694;28;20107;-77
2021/12/18 07:39:03;;;;;;;22.42;12.63;;;;;;;7.18;94.76;103857.88;5093515;28;20043;-77
2021/12/18 07:41:29;;;;;;;22.05;12.48;;;;;;;7.30;94.51;103877.28;5093525;28;20027;-77
2021/12/18 07:43:55;;;;;;;21.25;12.13;;;;;;;7.37;94.80;103881.69;5093057;28;20020;-77
2021/12/18 07:46:20;;;;;;;19.77;11.80;;;;;;;7.36;94.56;103883.47;5074763;28;20066;-78
2021/12/18 07:48:45;;;;;;;18.88;11.20;;;;;;;7.34;94.58;103884.34;5092574;28;20289;-77
2021/12/18 07:51:11;;;;;;;20.55;12.13;;;;;;;7.04;94.40;103849.06;5092675;28;20077;-76
2021/12/18 07:53:36;;;;;;;18.10;10.98;;;;;;;7.21;94.88;103873.75;5092865;28;20032;-79
2021/12/18 07:56:03;;;;;;;16.65;10.00;;;;;;;7.31;94.93;103887.88;5093282;28;20069;-76
2021/12/18 07:58:30;;;;;;;14.98;9.52;;;;;;;7.17;94.57;103865.81;5092989;28;20027;-76
2021/12/18 08:00:56;;;;;;;21.08;12.02;;;;;;;7.33;94.58;103886.09;5093091;28;20016;-76
2021/12/18 08:03:21;;;;;;;22.17;14.70;;;;;;;7.24;94.72;103870.22;5092703;28;20169;-76
2021/12/18 08:05:47;;;;;;;30.73;20.92;;;;;;;7.29;94.47;103884.31;5091744;28;20020;-77
2021/12/18 08:08:12;;;;;;;21.67;13.18;;;;;;;7.35;94.67;103894.91;5093151;28;20038;-77
2021/12/18 08:10:37;;;;;;;20.30;12.82;;;;;;;7.29;94.84;103889.63;5093048;28;20459;-76
2021/12/18 08:13:03;;;;;;;17.98;11.77;;;;;;;7.29;94.75;103876.38;5092823;28;20099;-77
2021/12/18 08:15:28;;;;;;;18.88;11.63;;;;;;;7.24;94.48;103870.22;5092432;28;20055;-78
2021/12/18 08:17:57;;;;;;;19.40;10.82;;;;;;;7.31;95.00;103884.34;5091175;28;20056;-77
2021/12/18 08:20:23;;;;;;;14.80;8.85;;;;;;;7.32;94.72;103889.63;5092932;28;20024;-78
2021/12/18 08:22:49;;;;;;;15.23;8.90;;;;;;;7.35;94.84;103894.91;5090837;28;20398;-79
2021/12/18 08:25:14;;;;;;;15.40;9.60;;;;;;;7.39;95.06;103896.69;5091324;28;20016;-77
2021/12/18 08:27:40;;;;;;;17.55;10.80;;;;;;;7.20;95.17;103876.38;5092615;28;20433;-76
2021/12/18 08:30:06;;;;;;;16.65;10.65;;;;;;;7.28;95.24;103886.09;5092772;28;20020;-78
2021/12/18 08:32:32;;;;;;;35.42;27.45;;;;;;;7.36;95.36;103896.69;5092584;28;20364;-78
2021/12/18 08:34:57;;;;;;;59.97;43.85;;;;;;;7.41;95.63;103892.28;5092428;28;20028;-78
2021/12/18 08:37:22;;;;;;;33.38;24.70;;;;;;;7.39;95.49;103894.03;5092778;28;20031;-77
2021/12/18 08:39:48;;;;;;;18.10;10.50;;;;;;;7.31;95.16;103882.56;5091340;28;20391;-77
2021/12/18 08:42:14;;;;;;;14.35;9.98;;;;;;;7.36;95.60;103890.53;5074567;28;20020;-76
2021/12/18 08:44:40;;;;;;;17.60;9.82;;;;;;;7.39;95.72;103896.69;5092167;28;20509;-77
2021/12/18 08:47:05;;;;;;;38.85;28.50;;;;;;;7.24;95.55;103876.41;5092710;28;20106;-77
2021/12/18 08:49:31;;;;;;;24.70;18.50;;;;;;;7.41;95.55;103894.94;5092575;28;20020;-77
2021/12/18 08:51:56;;;;;;;31.58;22.75;;;;;;;7.42;95.60;103896.69;5092671;28;20028;-77
2021/12/18 08:54:22;;;;;;;38.13;28.67;;;;;;;7.35;95.37;103888.72;5092150;28;20023;-78
2021/12/18 08:56:48;;;;;;;19.42;14.25;;;;;;;7.43;95.37;103898.44;5092546;28;20067;-78
2021/12/18 08:59:13;;;;;;;20.33;15.85;;;;;;;7.42;95.10;103894.03;5092019;28;20035;-79
2021/12/18 09:01:39;;;;;;;15.35;10.02;;;;;;;7.21;95.25;103855.22;5090774;28;20552;-77
2021/12/18 09:04:05;;;;;;;14.18;9.45;;;;;;;7.42;95.16;103894.03;5091084;28;20031;-78
2021/12/18 09:06:30;;;;;;;12.38;7.85;;;;;;;7.43;95.25;103892.28;5092703;28;20072;-77
2021/12/18 09:08:56;;;;;;;13.57;9.57;;;;;;;7.48;95.21;103896.69;5092241;28;20041;-77
2021/12/18 09:11:21;;;;;;;24.98;16.92;;;;;;;7.45;95.20;103883.44;5092306;28;20031;-77
2021/12/18 09:13:47;;;;;;;11.02;6.88;;;;;;;7.55;94.88;103894.03;5091115;28;20032;-77
2021/12/18 09:16:13;;;;;;;13.45;8.98;;;;;;;7.53;94.79;103899.34;5092226;28;20089;-77
2021/12/18 09:18:38;;;;;;;12.63;9.38;;;;;;;7.44;95.00;103878.13;5092313;28;20387;-78
2021/12/18 09:21:04;;;;;;;14.27;8.75;;;;;;;7.57;95.26;103897.56;5092120;28;20113;-76
2021/12/18 09:23:30;;;;;;;17.90;13.07;;;;;;;7.42;95.08;103872.84;5092227;28;20020;-78
2021/12/18 09:25:55;;;;;;;14.52;9.63;;;;;;;7.51;95.01;103882.56;5092362;28;20028;-77
2021/12/18 09:28:21;;;;;;;17.92;10.63;;;;;;;7.49;94.83;103879.03;5092189;28;20386;-77
2021/12/18 09:30:46;;;;;;;13.88;8.95;;;;;;;7.53;94.83;103890.47;5090181;28;20035;-77
2021/12/18 09:33:15;;;;;;;11.55;6.97;;;;;;;7.21;94.51;103838.47;5093475;28;20039;-77
2021/12/18 09:35:41;;;;;;;12.77;8.07;;;;;;;7.53;94.34;103899.34;5095976;28;20032;-79
2021/12/18 09:38:06;;;;;;;11.20;7.35;;;;;;;7.46;94.49;103886.97;5095869;28;20583;-76
2021/12/18 09:40:32;;;;;;;11.02;7.22;;;;;;;7.42;93.97;103883.44;5095953;28;20050;-77
2021/12/18 09:42:58;;;;;;;9.95;7.18;;;;;;;7.40;94.24;103877.25;5095716;28;20501;-78
2021/12/18 09:45:24;;;;;;;10.90;6.85;;;;;;;7.60;94.10;103895.78;5095661;28;20364;-77
2021/12/18 09:47:50;;;;;;;10.25;6.25;;;;;;;7.56;94.00;103886.09;5095633;28;20032;-77
2021/12/18 09:50:19;;;;;;;10.52;6.13;;;;;;;7.60;93.94;103897.56;5094380;28;20074;-77
2021/12/18 09:52:44;;;;;;;7.80;5.50;;;;;;;7.47;93.23;103868.44;5095150;28;20035;-77
2021/12/18 09:55:11;;;;;;;9.75;6.45;;;;;;;7.61;93.87;103886.06;5095554;28;20463;-78
2021/12/18 09:57:36;;;;;;;10.50;6.45;;;;;;;7.46;92.81;103860.50;5095476;28;20028;-78
2021/12/18 10:00:08;;;;;;;7.97;5.85;;;;;;;7.44;93.76;103865.81;5095397;28;20156;-78
2021/12/18 10:02:33;;;;;;;9.45;6.32;;;;;;;7.60;93.35;103881.66;5094955;28;20026;-78
2021/12/18 10:04:59;;;;;;;9.10;5.68;;;;;;;7.36;93.25;103829.63;5077149;28;20020;-76
2021/12/18 10:07:26;;;;;;;8.25;5.68;;;;;;;7.31;93.46;103832.25;5094071;28;20024;-77
2021/12/18 10:09:57;;;;;;;11.85;6.05;;;;;;;7.54;93.23;103876.38;5095379;28;20020;-76
2021/12/18 10:12:25;;;;;;;8.00;6.30;;;;;;;7.57;93.56;103865.78;5094984;28;20392;-78
2021/12/18 10:14:53;;;;;;;11.15;7.32;;;;;;;7.60;94.07;103876.38;5093831;28;20052;-78
2021/12/18 10:17:25;;;;;;;10.15;6.40;;;;;;;7.60;93.65;103869.28;5093932;28;20056;-78
2021/12/18 10:19:52;;;;;;;10.25;6.38;;;;;;;7.59;93.32;103870.19;5093765;28;20391;-77
2021/12/18 10:22:18;;;;;;;8.57;6.32;;;;;;;7.56;93.43;103858.69;5095054;28;20084;-77
2021/12/18 10:24:59;;;;;;;11.98;7.63;;;;;;;7.58;93.66;103863.13;5092927;28;20032;-78
2021/12/18 10:27:26;;;;;;;13.80;8.05;;;;;;;7.55;93.66;103855.16;5092638;28;20020;-77
2021/12/18 10:29:54;;;;;;;10.77;7.78;;;;;;;7.51;94.15;103842.84;5094409;28;20024;-76
2021/12/18 10:32:23;;;;;;;11.23;8.07;;;;;;;7.53;93.55;103845.47;5095848;28;20028;-78
2021/12/18 10:34:58;;;;;;;13.18;7.68;;;;;;;7.69;93.56;103863.09;5094542;28;20028;-77
2021/12/18 10:37:26;;;;;;;11.77;7.70;;;;;;;7.49;93.57;103821.63;5100455;28;20492;-77
2021/12/18 10:39:53;;;;;;;13.38;7.68;;;;;;;7.69;93.88;103856.03;5113717;28;20024;-78
2021/12/18 10:42:28;;;;;;;12.25;7.43;;;;;;;7.72;93.86;103856.03;5100517;28;20102;-77
2021/12/18 10:45:02;;;;;;;10.98;7.30;;;;;;;7.71;93.77;103862.22;5090609;28;20032;-79
2021/12/18 10:47:53;;;;;;;9.05;5.80;;;;;;;7.55;94.08;103833.97;5099097;28;20092;-78
2021/12/18 10:50:35;;;;;;;10.73;6.50;;;;;;;7.66;93.98;103853.38;5089153;28;20102;-78
2021/12/18 10:53:12;;;;;;;8.27;5.90;;;;;;;7.65;94.10;103853.41;5090936;28;20035;-78
2021/12/18 10:55:52;;;;;;;8.55;5.88;;;;;;;7.65;94.45;103850.75;5093223;28;20371;-79
2021/12/18 10:58:26;;;;;;;7.82;5.38;;;;;;;7.62;94.25;103846.34;5094190;28;20016;-78
2021/12/18 11:00:57;;;;;;;8.57;5.50;;;;;;;7.56;94.16;103854.31;5089028;28;20111;-76
2021/12/18 11:03:35;;;;;;;9.55;6.10;;;;;;;7.59;94.45;103856.94;5092239;28;20074;-75
2021/12/18 11:06:19;;;;;;;8.70;5.70;;;;;;;7.57;94.33;103853.41;5092789;28;20026;-78
2021/12/18 11:08:52;;;;;;;10.00;6.28;;;;;;;7.53;94.44;103851.66;5072511;28;20410;-76
2021/12/18 11:14:00;;;;;;;7.70;5.32;;;;;;;7.47;94.12;103839.31;5091724;28;20024;-77
2021/12/18 11:16:27;;;;;;;8.00;4.78;;;;;;;7.53;94.12;103853.41;5092958;28;20517;-76
2021/12/18 11:18:54;;;;;;;7.10;4.53;;;;;;;7.45;93.88;103843.72;5093986;28;20028;-76
2021/12/18 11:21:22;;;;;;;5.00;3.95;;;;;;;7.54;93.34;103860.50;5093755;28;20476;-77
2021/12/18 11:23:54;;;;;;;4.70;4.25;;;;;;;7.56;93.78;103850.75;5093708;28;20074;-76
2021/12/18 11:26:23;;;;;;;5.10;3.63;;;;;;;7.48;93.53;103837.53;5093420;28;20016;-77
2021/12/18 11:28:50;;;;;;;4.60;3.35;;;;;;;7.50;93.54;103844.59;5091501;28;20067;-76
2021/12/18 11:31:15;;;;;;;5.28;3.83;;;;;;;7.54;92.86;103831.34;5092008;28;20012;-77
2021/12/18 11:33:41;;;;;;;5.18;3.83;;;;;;;7.56;92.85;103821.63;5093393;28;20444;-76
2021/12/18 11:36:08;;;;;;;6.30;3.80;;;;;;;7.56;92.25;103829.56;5093629;28;20032;-78
2021/12/18 11:38:37;;;;;;;4.65;3.83;;;;;;;7.53;91.62;103822.53;5092963;28;20078;-80
2021/12/18 11:41:03;;;;;;;5.15;3.72;;;;;;;7.57;92.23;103820.75;5093394;28;20059;-76
2021/12/18 11:43:41;;;;;;;7.45;4.75;;;;;;;7.72;92.35;103841.91;5093213;28;20107;-77
2021/12/18 11:46:39;;;;;;;6.10;4.88;;;;;;;7.72;92.71;103834.81;5106288;28;20024;-79
2021/12/18 11:49:08;;;;;;;7.32;5.10;;;;;;;7.67;92.47;103833.06;5092863;28;20020;-76
2021/12/18 11:51:34;;;;;;;7.68;5.95;;;;;;;7.47;92.43;103819.88;5091890;28;20016;-78
2021/12/18 11:54:03;;;;;;;8.10;5.93;;;;;;;7.47;93.21;103807.53;5092974;28;20034;-78
2021/12/18 11:56:45;;;;;;;9.32;6.03;;;;;;;7.55;93.73;103822.50;5092186;28;20059;-79
2021/12/18 11:59:11;;;;;;;9.02;7.00;;;;;;;7.47;93.61;103803.97;5089888;28;20047;-77
2021/12/18 12:01:43;;;;;;;10.57;6.50;;;;;;;7.63;94.11;103811.00;5092095;28;20020;-78